sensor_id;sensor_type;location;lat;lon;timestamp;P1;durP1;ratioP1;P2;durP2;ratioP2
25191;SDS011;13143;50.924;5.320;2022-12-17T00:00:19;127.78;;;49.22;;
25191;SDS011;13143;50.924;5.320;2022-12-17T00:03:03;127.28;;;46.13;;
25191;SDS011;13143;50.924;5.320;2022-12-17T00:05:47;116.07;;;47.22;;
25191;SDS011;13143;50.924;5.320;2022-12-17T00:08:31;130.55;;;48.35;;
25191;SDS011;13143;50.924;5.320;2022-12-17T00:11:15;134.15;;;47.22;;
25191;SDS011;13143;50.924;5.320;2022-12-17T00:14:01;131.82;;;46.10;;
25191;SDS011;13143;50.924;5.320;2022-12-17T00:16:45;116.90;;;48.63;;
25191;SDS011;13143;50.924;5.320;2022-12-17T00:19:29;136.50;;;49.70;;
25191;SDS011;13143;50.924;5.320;2022-12-17T00:22:13;134.27;;;48.72;;
25191;SDS011;13143;50.924;5.320;2022-12-17T00:24:58;124.18;;;46.70;;
25191;SDS011;13143;50.924;5.320;2022-12-17T00:27:42;129.63;;;47.95;;
25191;SDS011;13143;50.924;5.320;2022-12-17T00:30:26;130.05;;;49.10;;
25191;SDS011;13143;50.924;5.320;2022-12-17T00:33:11;134.85;;;48.20;;
25191;SDS011;13143;50.924;5.320;2022-12-17T00:35:55;124.55;;;47.95;;
25191;SDS011;13143;50.924;5.320;2022-12-17T00:38:39;131.30;;;47.00;;
25191;SDS011;13143;50.924;5.320;2022-12-17T00:41:23;127.22;;;48.85;;
25191;SDS011;13143;50.924;5.320;2022-12-17T00:44:08;126.97;;;47.53;;
25191;SDS011;13143;50.924;5.320;2022-12-17T00:46:52;128.50;;;47.88;;
25191;SDS011;13143;50.924;5.320;2022-12-17T00:49:56;125.40;;;46.40;;
25191;SDS011;13143;50.924;5.320;2022-12-17T00:52:40;131.60;;;47.60;;
25191;SDS011;13143;50.924;5.320;2022-12-17T00:55:25;133.95;;;45.70;;
25191;SDS011;13143;50.924;5.320;2022-12-17T00:58:09;119.65;;;45.30;;
25191;SDS011;13143;50.924;5.320;2022-12-17T01:00:57;127.80;;;45.72;;
25191;SDS011;13143;50.924;5.320;2022-12-17T01:03:42;128.35;;;46.47;;
25191;SDS011;13143;50.924;5.320;2022-12-17T01:06:26;124.70;;;45.17;;
25191;SDS011;13143;50.924;5.320;2022-12-17T01:09:10;128.30;;;46.40;;
25191;SDS011;13143;50.924;5.320;2022-12-17T01:11:54;128.60;;;46.17;;
25191;SDS011;13143;50.924;5.320;2022-12-17T01:14:38;132.85;;;47.40;;
25191;SDS011;13143;50.924;5.320;2022-12-17T01:17:22;126.45;;;44.97;;
25191;SDS011;13143;50.924;5.320;2022-12-17T01:20:07;127.55;;;47.78;;
25191;SDS011;13143;50.924;5.320;2022-12-17T01:22:51;124.00;;;47.33;;
25191;SDS011;13143;50.924;5.320;2022-12-17T01:25:35;131.07;;;45.72;;
25191;SDS011;13143;50.924;5.320;2022-12-17T01:28:23;126.40;;;47.42;;
25191;SDS011;13143;50.924;5.320;2022-12-17T01:31:08;135.30;;;45.40;;
25191;SDS011;13143;50.924;5.320;2022-12-17T01:33:52;133.48;;;46.53;;
25191;SDS011;13143;50.924;5.320;2022-12-17T01:36:36;129.27;;;47.30;;
25191;SDS011;13143;50.924;5.320;2022-12-17T01:39:21;126.55;;;46.88;;
25191;SDS011;13143;50.924;5.320;2022-12-17T01:42:09;125.55;;;45.63;;
25191;SDS011;13143;50.924;5.320;2022-12-17T01:45:06;126.05;;;46.28;;
25191;SDS011;13143;50.924;5.320;2022-12-17T01:48:01;126.75;;;44.95;;
25191;SDS011;13143;50.924;5.320;2022-12-17T01:50:48;125.00;;;45.47;;
25191;SDS011;13143;50.924;5.320;2022-12-17T01:53:36;132.75;;;45.70;;
25191;SDS011;13143;50.924;5.320;2022-12-17T01:56:23;136.43;;;46.38;;
25191;SDS011;13143;50.924;5.320;2022-12-17T01:59:08;124.60;;;46.10;;
25191;SDS011;13143;50.924;5.320;2022-12-17T02:02:07;128.35;;;45.17;;
25191;SDS011;13143;50.924;5.320;2022-12-17T02:04:51;125.93;;;44.15;;
25191;SDS011;13143;50.924;5.320;2022-12-17T02:14:26;124.22;;;42.05;;
25191;SDS011;13143;50.924;5.320;2022-12-17T02:17:20;117.07;;;41.50;;
25191;SDS011;13143;50.924;5.320;2022-12-17T02:23:07;113.57;;;42.05;;
25191;SDS011;13143;50.924;5.320;2022-12-17T02:28:52;119.13;;;42.58;;
25191;SDS011;13143;50.924;5.320;2022-12-17T02:31:39;117.03;;;42.33;;
25191;SDS011;13143;50.924;5.320;2022-12-17T02:34:25;115.95;;;43.75;;
25191;SDS011;13143;50.924;5.320;2022-12-17T02:37:09;116.55;;;41.20;;
25191;SDS011;13143;50.924;5.320;2022-12-17T02:39:53;111.15;;;40.42;;
25191;SDS011;13143;50.924;5.320;2022-12-17T02:42:38;111.05;;;40.25;;
25191;SDS011;13143;50.924;5.320;2022-12-17T02:45:24;112.55;;;40.80;;
25191;SDS011;13143;50.924;5.320;2022-12-17T02:48:08;103.22;;;39.53;;
25191;SDS011;13143;50.924;5.320;2022-12-17T02:50:54;105.63;;;39.60;;
25191;SDS011;13143;50.924;5.320;2022-12-17T02:53:43;111.30;;;41.58;;
25191;SDS011;13143;50.924;5.320;2022-12-17T02:56:28;107.80;;;41.30;;
25191;SDS011;13143;50.924;5.320;2022-12-17T02:59:12;116.03;;;41.08;;
25191;SDS011;13143;50.924;5.320;2022-12-17T03:01:57;111.82;;;41.33;;
25191;SDS011;13143;50.924;5.320;2022-12-17T03:04:41;100.85;;;39.78;;
25191;SDS011;13143;50.924;5.320;2022-12-17T03:07:25;107.97;;;41.08;;
25191;SDS011;13143;50.924;5.320;2022-12-17T03:10:09;103.45;;;39.67;;
25191;SDS011;13143;50.924;5.320;2022-12-17T03:12:54;103.93;;;39.05;;
25191;SDS011;13143;50.924;5.320;2022-12-17T03:15:38;106.22;;;39.22;;
25191;SDS011;13143;50.924;5.320;2022-12-17T03:18:22;102.07;;;39.63;;
25191;SDS011;13143;50.924;5.320;2022-12-17T03:21:06;102.07;;;40.10;;
25191;SDS011;13143;50.924;5.320;2022-12-17T03:23:51;96.07;;;39.22;;
25191;SDS011;13143;50.924;5.320;2022-12-17T03:26:35;107.15;;;39.58;;
25191;SDS011;13143;50.924;5.320;2022-12-17T03:29:19;94.97;;;37.85;;
25191;SDS011;13143;50.924;5.320;2022-12-17T03:32:03;107.00;;;39.15;;
25191;SDS011;13143;50.924;5.320;2022-12-17T03:35:01;91.38;;;37.58;;
25191;SDS011;13143;50.924;5.320;2022-12-17T03:37:46;95.32;;;39.53;;
25191;SDS011;13143;50.924;5.320;2022-12-17T03:40:30;98.70;;;40.28;;
25191;SDS011;13143;50.924;5.320;2022-12-17T03:43:14;95.70;;;38.65;;
25191;SDS011;13143;50.924;5.320;2022-12-17T03:45:58;97.07;;;39.33;;
25191;SDS011;13143;50.924;5.320;2022-12-17T03:48:42;95.25;;;39.35;;
25191;SDS011;13143;50.924;5.320;2022-12-17T03:51:26;96.95;;;39.88;;
25191;SDS011;13143;50.924;5.320;2022-12-17T03:54:10;97.80;;;39.15;;
25191;SDS011;13143;50.924;5.320;2022-12-17T03:56:54;91.85;;;38.72;;
25191;SDS011;13143;50.924;5.320;2022-12-17T03:59:38;91.97;;;39.17;;
25191;SDS011;13143;50.924;5.320;2022-12-17T04:02:22;98.55;;;38.67;;
25191;SDS011;13143;50.924;5.320;2022-12-17T04:05:06;95.47;;;39.70;;
25191;SDS011;13143;50.924;5.320;2022-12-17T04:07:51;97.88;;;39.05;;
25191;SDS011;13143;50.924;5.320;2022-12-17T04:10:35;98.85;;;39.17;;
25191;SDS011;13143;50.924;5.320;2022-12-17T04:13:20;97.13;;;39.13;;
25191;SDS011;13143;50.924;5.320;2022-12-17T04:16:04;97.75;;;38.17;;
25191;SDS011;13143;50.924;5.320;2022-12-17T04:18:48;91.88;;;39.35;;
25191;SDS011;13143;50.924;5.320;2022-12-17T04:21:32;99.38;;;38.70;;
25191;SDS011;13143;50.924;5.320;2022-12-17T04:24:16;98.22;;;40.28;;
25191;SDS011;13143;50.924;5.320;2022-12-17T04:27:01;87.53;;;38.17;;
25191;SDS011;13143;50.924;5.320;2022-12-17T04:29:45;101.43;;;39.80;;
25191;SDS011;13143;50.924;5.320;2022-12-17T04:32:29;85.97;;;37.55;;
25191;SDS011;13143;50.924;5.320;2022-12-17T04:35:13;98.80;;;39.72;;
25191;SDS011;13143;50.924;5.320;2022-12-17T04:37:58;92.38;;;37.13;;
25191;SDS011;13143;50.924;5.320;2022-12-17T04:40:42;97.93;;;38.40;;
25191;SDS011;13143;50.924;5.320;2022-12-17T04:43:26;97.88;;;40.58;;
25191;SDS011;13143;50.924;5.320;2022-12-17T04:46:10;104.00;;;40.40;;
25191;SDS011;13143;50.924;5.320;2022-12-17T04:48:55;92.22;;;39.22;;
25191;SDS011;13143;50.924;5.320;2022-12-17T04:51:39;97.93;;;38.35;;
25191;SDS011;13143;50.924;5.320;2022-12-17T04:54:23;92.22;;;38.25;;
25191;SDS011;13143;50.924;5.320;2022-12-17T04:57:07;83.30;;;36.35;;
25191;SDS011;13143;50.924;5.320;2022-12-17T04:59:52;92.40;;;38.15;;
25191;SDS011;13143;50.924;5.320;2022-12-17T05:02:36;86.72;;;37.72;;
25191;SDS011;13143;50.924;5.320;2022-12-17T05:05:20;88.25;;;36.40;;
25191;SDS011;13143;50.924;5.320;2022-12-17T05:08:04;92.97;;;37.97;;
25191;SDS011;13143;50.924;5.320;2022-12-17T05:10:49;86.22;;;37.90;;
25191;SDS011;13143;50.924;5.320;2022-12-17T05:13:33;101.45;;;39.33;;
25191;SDS011;13143;50.924;5.320;2022-12-17T05:19:21;99.07;;;38.00;;
25191;SDS011;13143;50.924;5.320;2022-12-17T05:22:05;108.07;;;37.28;;
25191;SDS011;13143;50.924;5.320;2022-12-17T05:24:48;118.45;;;40.22;;
25191;SDS011;13143;50.924;5.320;2022-12-17T05:27:33;115.00;;;41.13;;
25191;SDS011;13143;50.924;5.320;2022-12-17T05:30:17;132.32;;;41.17;;
25191;SDS011;13143;50.924;5.320;2022-12-17T05:33:02;122.57;;;42.53;;
25191;SDS011;13143;50.924;5.320;2022-12-17T05:35:47;134.25;;;43.13;;
25191;SDS011;13143;50.924;5.320;2022-12-17T05:38:31;123.82;;;43.42;;
25191;SDS011;13143;50.924;5.320;2022-12-17T05:41:15;139.40;;;44.60;;
25191;SDS011;13143;50.924;5.320;2022-12-17T05:43:59;139.27;;;44.92;;
25191;SDS011;13143;50.924;5.320;2022-12-17T05:46:44;139.30;;;42.47;;
25191;SDS011;13143;50.924;5.320;2022-12-17T05:49:28;156.52;;;45.70;;
25191;SDS011;13143;50.924;5.320;2022-12-17T05:52:12;153.95;;;47.72;;
25191;SDS011;13143;50.924;5.320;2022-12-17T05:55:13;145.77;;;45.67;;
25191;SDS011;13143;50.924;5.320;2022-12-17T05:58:04;156.40;;;46.92;;
25191;SDS011;13143;50.924;5.320;2022-12-17T06:00:59;163.90;;;48.08;;
25191;SDS011;13143;50.924;5.320;2022-12-17T06:03:45;159.00;;;47.58;;
25191;SDS011;13143;50.924;5.320;2022-12-17T06:06:29;166.52;;;48.65;;
25191;SDS011;13143;50.924;5.320;2022-12-17T06:09:14;174.77;;;47.30;;
25191;SDS011;13143;50.924;5.320;2022-12-17T06:11:58;163.95;;;50.42;;
25191;SDS011;13143;50.924;5.320;2022-12-17T06:14:42;166.05;;;49.08;;
25191;SDS011;13143;50.924;5.320;2022-12-17T06:17:27;169.43;;;47.55;;
25191;SDS011;13143;50.924;5.320;2022-12-17T06:20:11;163.75;;;48.08;;
25191;SDS011;13143;50.924;5.320;2022-12-17T06:23:03;165.52;;;49.65;;
25191;SDS011;13143;50.924;5.320;2022-12-17T06:25:52;173.70;;;51.77;;
25191;SDS011;13143;50.924;5.320;2022-12-17T06:28:39;168.70;;;47.85;;
25191;SDS011;13143;50.924;5.320;2022-12-17T06:31:23;167.75;;;48.20;;
25191;SDS011;13143;50.924;5.320;2022-12-17T06:34:08;181.18;;;50.17;;
25191;SDS011;13143;50.924;5.320;2022-12-17T06:36:52;171.95;;;50.83;;
25191;SDS011;13143;50.924;5.320;2022-12-17T06:39:36;161.15;;;48.33;;
25191;SDS011;13143;50.924;5.320;2022-12-17T06:42:21;168.10;;;50.13;;
25191;SDS011;13143;50.924;5.320;2022-12-17T06:45:05;184.93;;;51.45;;
25191;SDS011;13143;50.924;5.320;2022-12-17T06:47:50;168.90;;;48.25;;
25191;SDS011;13143;50.924;5.320;2022-12-17T06:50:34;184.57;;;54.75;;
25191;SDS011;13143;50.924;5.320;2022-12-17T06:53:18;165.55;;;48.67;;
25191;SDS011;13143;50.924;5.320;2022-12-17T06:56:03;164.68;;;48.75;;
25191;SDS011;13143;50.924;5.320;2022-12-17T06:58:47;167.93;;;51.70;;
25191;SDS011;13143;50.924;5.320;2022-12-17T07:01:31;179.35;;;51.75;;
25191;SDS011;13143;50.924;5.320;2022-12-17T07:04:15;189.65;;;51.95;;
25191;SDS011;13143;50.924;5.320;2022-12-17T07:07:00;175.05;;;52.35;;
25191;SDS011;13143;50.924;5.320;2022-12-17T07:09:44;177.82;;;51.08;;
25191;SDS011;13143;50.924;5.320;2022-12-17T07:12:28;165.85;;;49.67;;
25191;SDS011;13143;50.924;5.320;2022-12-17T07:15:12;162.18;;;47.72;;
25191;SDS011;13143;50.924;5.320;2022-12-17T07:18:02;163.25;;;50.97;;
25191;SDS011;13143;50.924;5.320;2022-12-17T07:20:47;155.85;;;47.00;;
25191;SDS011;13143;50.924;5.320;2022-12-17T07:23:35;153.82;;;47.78;;
25191;SDS011;13143;50.924;5.320;2022-12-17T07:26:19;152.55;;;49.10;;
25191;SDS011;13143;50.924;5.320;2022-12-17T07:29:04;144.00;;;45.85;;
25191;SDS011;13143;50.924;5.320;2022-12-17T07:31:48;153.70;;;46.95;;
25191;SDS011;13143;50.924;5.320;2022-12-17T07:34:32;158.23;;;49.28;;
25191;SDS011;13143;50.924;5.320;2022-12-17T07:37:16;145.35;;;45.80;;
25191;SDS011;13143;50.924;5.320;2022-12-17T07:40:00;153.85;;;47.22;;
25191;SDS011;13143;50.924;5.320;2022-12-17T07:42:44;161.88;;;49.13;;
25191;SDS011;13143;50.924;5.320;2022-12-17T07:45:28;159.48;;;48.25;;
25191;SDS011;13143;50.924;5.320;2022-12-17T07:48:12;160.20;;;47.03;;
25191;SDS011;13143;50.924;5.320;2022-12-17T07:50:56;164.05;;;48.55;;
25191;SDS011;13143;50.924;5.320;2022-12-17T07:53:40;171.20;;;48.85;;
25191;SDS011;13143;50.924;5.320;2022-12-17T07:56:24;166.82;;;49.10;;
25191;SDS011;13143;50.924;5.320;2022-12-17T07:59:09;163.23;;;49.55;;
25191;SDS011;13143;50.924;5.320;2022-12-17T08:01:53;161.40;;;48.08;;
25191;SDS011;13143;50.924;5.320;2022-12-17T08:04:37;176.32;;;50.63;;
25191;SDS011;13143;50.924;5.320;2022-12-17T08:07:21;167.20;;;47.47;;
25191;SDS011;13143;50.924;5.320;2022-12-17T08:10:06;164.40;;;48.45;;
25191;SDS011;13143;50.924;5.320;2022-12-17T08:12:54;156.20;;;45.80;;
25191;SDS011;13143;50.924;5.320;2022-12-17T08:15:43;155.38;;;45.20;;
25191;SDS011;13143;50.924;5.320;2022-12-17T08:18:27;161.48;;;47.15;;
25191;SDS011;13143;50.924;5.320;2022-12-17T08:21:12;164.45;;;46.95;;
25191;SDS011;13143;50.924;5.320;2022-12-17T08:23:56;168.25;;;46.40;;
25191;SDS011;13143;50.924;5.320;2022-12-17T08:26:40;156.73;;;44.30;;
25191;SDS011;13143;50.924;5.320;2022-12-17T08:29:25;164.35;;;45.50;;
25191;SDS011;13143;50.924;5.320;2022-12-17T08:32:09;157.02;;;44.83;;
25191;SDS011;13143;50.924;5.320;2022-12-17T08:34:54;158.90;;;44.72;;
25191;SDS011;13143;50.924;5.320;2022-12-17T08:37:38;153.73;;;44.35;;
25191;SDS011;13143;50.924;5.320;2022-12-17T08:40:23;152.43;;;43.20;;
25191;SDS011;13143;50.924;5.320;2022-12-17T08:43:07;165.40;;;44.83;;
25191;SDS011;13143;50.924;5.320;2022-12-17T08:45:51;161.70;;;46.78;;
25191;SDS011;13143;50.924;5.320;2022-12-17T08:48:36;145.15;;;43.53;;
25191;SDS011;13143;50.924;5.320;2022-12-17T08:51:21;154.00;;;42.10;;
25191;SDS011;13143;50.924;5.320;2022-12-17T08:54:06;136.43;;;41.30;;
25191;SDS011;13143;50.924;5.320;2022-12-17T08:56:50;136.73;;;40.53;;
25191;SDS011;13143;50.924;5.320;2022-12-17T08:59:34;138.45;;;42.92;;
25191;SDS011;13143;50.924;5.320;2022-12-17T09:02:19;143.90;;;41.60;;
25191;SDS011;13143;50.924;5.320;2022-12-17T09:05:03;139.75;;;42.50;;
25191;SDS011;13143;50.924;5.320;2022-12-17T09:07:48;143.00;;;42.60;;
25191;SDS011;13143;50.924;5.320;2022-12-17T09:10:32;142.48;;;43.10;;
25191;SDS011;13143;50.924;5.320;2022-12-17T09:13:16;133.13;;;38.92;;
25191;SDS011;13143;50.924;5.320;2022-12-17T09:16:01;129.35;;;40.30;;
25191;SDS011;13143;50.924;5.320;2022-12-17T09:18:45;128.98;;;40.00;;
25191;SDS011;13143;50.924;5.320;2022-12-17T09:21:40;124.00;;;40.67;;
25191;SDS011;13143;50.924;5.320;2022-12-17T09:24:23;121.07;;;38.63;;
25191;SDS011;13143;50.924;5.320;2022-12-17T09:27:08;117.65;;;38.88;;
25191;SDS011;13143;50.924;5.320;2022-12-17T09:29:52;116.55;;;40.25;;
25191;SDS011;13143;50.924;5.320;2022-12-17T09:32:36;129.57;;;39.95;;
25191;SDS011;13143;50.924;5.320;2022-12-17T09:35:21;109.95;;;37.92;;
25191;SDS011;13143;50.924;5.320;2022-12-17T09:38:04;113.10;;;39.67;;
25191;SDS011;13143;50.924;5.320;2022-12-17T09:40:49;115.55;;;39.03;;
25191;SDS011;13143;50.924;5.320;2022-12-17T09:43:47;107.60;;;37.28;;
25191;SDS011;13143;50.924;5.320;2022-12-17T09:46:43;96.63;;;35.20;;
25191;SDS011;13143;50.924;5.320;2022-12-17T09:49:40;114.43;;;36.83;;
25191;SDS011;13143;50.924;5.320;2022-12-17T09:52:29;108.03;;;36.72;;
25191;SDS011;13143;50.924;5.320;2022-12-17T09:55:21;102.57;;;35.83;;
25191;SDS011;13143;50.924;5.320;2022-12-17T09:58:22;107.40;;;37.15;;
25191;SDS011;13143;50.924;5.320;2022-12-17T10:01:18;104.38;;;35.53;;
25191;SDS011;13143;50.924;5.320;2022-12-17T10:04:06;103.65;;;35.65;;
25191;SDS011;13143;50.924;5.320;2022-12-17T10:06:55;105.28;;;38.28;;
25191;SDS011;13143;50.924;5.320;2022-12-17T10:09:40;98.07;;;35.50;;
25191;SDS011;13143;50.924;5.320;2022-12-17T10:12:24;97.03;;;35.30;;
25191;SDS011;13143;50.924;5.320;2022-12-17T10:15:12;103.72;;;35.83;;
25191;SDS011;13143;50.924;5.320;2022-12-17T10:17:57;96.07;;;36.28;;
25191;SDS011;13143;50.924;5.320;2022-12-17T10:20:49;104.70;;;36.55;;
25191;SDS011;13143;50.924;5.320;2022-12-17T10:23:39;96.00;;;35.15;;
25191;SDS011;13143;50.924;5.320;2022-12-17T10:26:27;97.05;;;36.78;;
25191;SDS011;13143;50.924;5.320;2022-12-17T10:29:14;97.57;;;37.60;;
25191;SDS011;13143;50.924;5.320;2022-12-17T10:32:10;104.50;;;35.95;;
25191;SDS011;13143;50.924;5.320;2022-12-17T10:34:59;103.47;;;36.58;;
25191;SDS011;13143;50.924;5.320;2022-12-17T10:37:59;110.70;;;40.78;;
25191;SDS011;13143;50.924;5.320;2022-12-17T10:40:44;103.88;;;38.15;;
25191;SDS011;13143;50.924;5.320;2022-12-17T10:43:30;110.45;;;39.60;;
25191;SDS011;13143;50.924;5.320;2022-12-17T10:49:12;113.35;;;40.60;;
25191;SDS011;13143;50.924;5.320;2022-12-17T10:52:01;105.80;;;37.90;;
25191;SDS011;13143;50.924;5.320;2022-12-17T10:54:59;108.32;;;38.78;;
25191;SDS011;13143;50.924;5.320;2022-12-17T10:57:44;106.35;;;39.15;;
25191;SDS011;13143;50.924;5.320;2022-12-17T11:00:33;101.78;;;38.72;;
25191;SDS011;13143;50.924;5.320;2022-12-17T11:06:16;108.07;;;38.85;;
25191;SDS011;13143;50.924;5.320;2022-12-17T11:09:35;110.63;;;40.80;;
25191;SDS011;13143;50.924;5.320;2022-12-17T11:12:33;110.00;;;39.53;;
25191;SDS011;13143;50.924;5.320;2022-12-17T11:15:30;103.78;;;37.67;;
25191;SDS011;13143;50.924;5.320;2022-12-17T11:21:36;98.47;;;36.65;;
25191;SDS011;13143;50.924;5.320;2022-12-17T11:24:30;102.45;;;38.78;;
25191;SDS011;13143;50.924;5.320;2022-12-17T11:27:22;116.93;;;41.38;;
25191;SDS011;13143;50.924;5.320;2022-12-17T11:30:10;120.43;;;44.50;;
25191;SDS011;13143;50.924;5.320;2022-12-17T11:36:04;120.57;;;43.13;;
25191;SDS011;13143;50.924;5.320;2022-12-17T11:38:58;123.72;;;40.65;;
25191;SDS011;13143;50.924;5.320;2022-12-17T11:41:55;118.63;;;41.80;;
25191;SDS011;13143;50.924;5.320;2022-12-17T11:48:07;116.85;;;40.08;;
25191;SDS011;13143;50.924;5.320;2022-12-17T11:51:23;110.47;;;39.33;;
25191;SDS011;13143;50.924;5.320;2022-12-17T11:54:19;116.63;;;40.67;;
25191;SDS011;13143;50.924;5.320;2022-12-17T12:00:33;110.72;;;40.00;;
25191;SDS011;13143;50.924;5.320;2022-12-17T12:03:34;112.55;;;41.03;;
25191;SDS011;13143;50.924;5.320;2022-12-17T12:06:32;118.78;;;43.55;;
25191;SDS011;13143;50.924;5.320;2022-12-17T12:12:30;102.22;;;37.92;;
25191;SDS011;13143;50.924;5.320;2022-12-17T12:18:51;112.40;;;41.80;;
25191;SDS011;13143;50.924;5.320;2022-12-17T12:21:39;106.07;;;39.92;;
25191;SDS011;13143;50.924;5.320;2022-12-17T12:30:26;112.10;;;41.15;;
25191;SDS011;13143;50.924;5.320;2022-12-17T12:36:14;112.53;;;41.78;;
25191;SDS011;13143;50.924;5.320;2022-12-17T12:39:01;108.68;;;41.95;;
25191;SDS011;13143;50.924;5.320;2022-12-17T12:48:29;109.25;;;40.45;;
25191;SDS011;13143;50.924;5.320;2022-12-17T12:51:28;109.50;;;40.35;;
25191;SDS011;13143;50.924;5.320;2022-12-17T12:54:29;112.45;;;39.63;;
25191;SDS011;13143;50.924;5.320;2022-12-17T13:19:57;111.80;;;41.47;;
25191;SDS011;13143;50.924;5.320;2022-12-17T13:22:28;115.78;;;45.42;;
25191;SDS011;13143;50.924;5.320;2022-12-17T13:28:02;105.63;;;39.92;;
25191;SDS011;13143;50.924;5.320;2022-12-17T13:30:30;109.90;;;41.47;;
25191;SDS011;13143;50.924;5.320;2022-12-17T13:39:21;107.03;;;42.17;;
25191;SDS011;13143;50.924;5.320;2022-12-17T13:41:58;116.72;;;42.33;;
25191;SDS011;13143;50.924;5.320;2022-12-17T13:44:27;111.32;;;42.70;;
25191;SDS011;13143;50.924;5.320;2022-12-17T13:47:30;114.72;;;43.78;;
25191;SDS011;13143;50.924;5.320;2022-12-17T13:49:59;109.03;;;42.08;;
25191;SDS011;13143;50.924;5.320;2022-12-17T13:52:26;108.85;;;42.25;;
25191;SDS011;13143;50.924;5.320;2022-12-17T13:54:53;109.53;;;43.40;;
25191;SDS011;13143;50.924;5.320;2022-12-17T13:57:30;112.53;;;43.15;;
25191;SDS011;13143;50.924;5.320;2022-12-17T13:59:58;101.60;;;40.35;;
25191;SDS011;13143;50.924;5.320;2022-12-17T14:02:27;108.85;;;42.83;;
25191;SDS011;13143;50.924;5.320;2022-12-17T14:04:55;111.22;;;42.35;;
25191;SDS011;13143;50.924;5.320;2022-12-17T14:07:23;113.25;;;44.60;;
25191;SDS011;13143;50.924;5.320;2022-12-17T14:09:50;107.47;;;43.17;;
25191;SDS011;13143;50.924;5.320;2022-12-17T14:12:18;108.20;;;40.38;;
25191;SDS011;13143;50.924;5.320;2022-12-17T14:14:46;105.40;;;41.63;;
25191;SDS011;13143;50.924;5.320;2022-12-17T14:17:27;106.00;;;42.33;;
25191;SDS011;13143;50.924;5.320;2022-12-17T14:25:02;109.95;;;41.95;;
25191;SDS011;13143;50.924;5.320;2022-12-17T14:27:31;100.70;;;39.85;;
25191;SDS011;13143;50.924;5.320;2022-12-17T14:29:59;101.00;;;41.25;;
25191;SDS011;13143;50.924;5.320;2022-12-17T14:32:33;112.20;;;41.33;;
25191;SDS011;13143;50.924;5.320;2022-12-17T14:35:00;105.10;;;41.28;;
25191;SDS011;13143;50.924;5.320;2022-12-17T14:37:26;107.75;;;43.65;;
25191;SDS011;13143;50.924;5.320;2022-12-17T14:40:00;111.90;;;40.88;;
25191;SDS011;13143;50.924;5.320;2022-12-17T14:42:28;98.43;;;40.85;;
25191;SDS011;13143;50.924;5.320;2022-12-17T14:47:23;102.40;;;41.35;;
25191;SDS011;13143;50.924;5.320;2022-12-17T14:50:06;107.60;;;42.38;;
25191;SDS011;13143;50.924;5.320;2022-12-17T14:52:50;109.25;;;41.72;;
25191;SDS011;13143;50.924;5.320;2022-12-17T14:57:53;103.05;;;40.65;;
25191;SDS011;13143;50.924;5.320;2022-12-17T15:00:30;109.10;;;41.83;;
25191;SDS011;13143;50.924;5.320;2022-12-17T15:02:56;106.75;;;41.47;;
25191;SDS011;13143;50.924;5.320;2022-12-17T15:05:21;104.45;;;40.47;;
25191;SDS011;13143;50.924;5.320;2022-12-17T15:07:47;106.88;;;42.10;;
25191;SDS011;13143;50.924;5.320;2022-12-17T15:10:15;106.82;;;42.03;;
25191;SDS011;13143;50.924;5.320;2022-12-17T15:12:43;100.88;;;40.88;;
25191;SDS011;13143;50.924;5.320;2022-12-17T15:15:12;104.18;;;41.00;;
25191;SDS011;13143;50.924;5.320;2022-12-17T15:17:39;104.07;;;41.13;;
25191;SDS011;13143;50.924;5.320;2022-12-17T15:20:06;104.95;;;42.05;;
25191;SDS011;13143;50.924;5.320;2022-12-17T15:22:36;109.03;;;41.65;;
25191;SDS011;13143;50.924;5.320;2022-12-17T15:25:02;106.28;;;41.00;;
25191;SDS011;13143;50.924;5.320;2022-12-17T15:27:28;110.82;;;42.70;;
25191;SDS011;13143;50.924;5.320;2022-12-17T15:29:54;106.18;;;42.63;;
25191;SDS011;13143;50.924;5.320;2022-12-17T15:32:21;113.55;;;44.97;;
25191;SDS011;13143;50.924;5.320;2022-12-17T15:34:47;121.72;;;44.67;;
25191;SDS011;13143;50.924;5.320;2022-12-17T15:37:14;105.43;;;42.42;;
25191;SDS011;13143;50.924;5.320;2022-12-17T15:39:41;103.88;;;41.95;;
25191;SDS011;13143;50.924;5.320;2022-12-17T15:42:07;109.25;;;44.42;;
25191;SDS011;13143;50.924;5.320;2022-12-17T15:44:52;103.65;;;41.85;;
25191;SDS011;13143;50.924;5.320;2022-12-17T15:47:18;114.60;;;43.80;;
25191;SDS011;13143;50.924;5.320;2022-12-17T15:49:44;106.55;;;42.95;;
25191;SDS011;13143;50.924;5.320;2022-12-17T15:52:09;112.65;;;43.53;;
25191;SDS011;13143;50.924;5.320;2022-12-17T15:54:38;115.35;;;44.20;;
25191;SDS011;13143;50.924;5.320;2022-12-17T15:57:07;123.28;;;45.60;;
25191;SDS011;13143;50.924;5.320;2022-12-17T15:59:33;120.28;;;46.88;;
25191;SDS011;13143;50.924;5.320;2022-12-17T16:01:59;125.50;;;48.03;;
25191;SDS011;13143;50.924;5.320;2022-12-17T16:04:25;120.95;;;46.25;;
25191;SDS011;13143;50.924;5.320;2022-12-17T16:06:50;109.28;;;43.88;;
25191;SDS011;13143;50.924;5.320;2022-12-17T16:09:16;123.15;;;48.03;;
25191;SDS011;13143;50.924;5.320;2022-12-17T16:11:42;115.40;;;46.90;;
25191;SDS011;13143;50.924;5.320;2022-12-17T16:14:07;124.82;;;46.50;;
25191;SDS011;13143;50.924;5.320;2022-12-17T16:16:33;121.43;;;47.63;;
25191;SDS011;13143;50.924;5.320;2022-12-17T16:18:59;121.63;;;47.90;;
25191;SDS011;13143;50.924;5.320;2022-12-17T16:21:26;112.97;;;45.60;;
25191;SDS011;13143;50.924;5.320;2022-12-17T16:23:51;113.78;;;45.88;;
25191;SDS011;13143;50.924;5.320;2022-12-17T16:26:17;112.95;;;44.58;;
25191;SDS011;13143;50.924;5.320;2022-12-17T16:28:43;112.65;;;47.50;;
25191;SDS011;13143;50.924;5.320;2022-12-17T16:31:10;116.60;;;45.45;;
25191;SDS011;13143;50.924;5.320;2022-12-17T16:33:38;106.82;;;45.25;;
25191;SDS011;13143;50.924;5.320;2022-12-17T16:36:06;108.05;;;44.67;;
25191;SDS011;13143;50.924;5.320;2022-12-17T16:38:33;109.88;;;43.45;;
25191;SDS011;13143;50.924;5.320;2022-12-17T16:41:00;111.35;;;45.67;;
25191;SDS011;13143;50.924;5.320;2022-12-17T16:43:27;122.00;;;49.15;;
25191;SDS011;13143;50.924;5.320;2022-12-17T16:45:57;122.22;;;49.08;;
25191;SDS011;13143;50.924;5.320;2022-12-17T16:48:22;126.20;;;49.45;;
25191;SDS011;13143;50.924;5.320;2022-12-17T16:50:49;134.55;;;51.22;;
25191;SDS011;13143;50.924;5.320;2022-12-17T16:53:15;131.10;;;50.72;;
25191;SDS011;13143;50.924;5.320;2022-12-17T16:55:42;133.32;;;49.75;;
25191;SDS011;13143;50.924;5.320;2022-12-17T16:58:09;129.07;;;48.42;;
25191;SDS011;13143;50.924;5.320;2022-12-17T17:00:35;141.15;;;50.70;;
25191;SDS011;13143;50.924;5.320;2022-12-17T17:03:02;134.82;;;50.70;;
25191;SDS011;13143;50.924;5.320;2022-12-17T17:05:32;136.90;;;51.35;;
25191;SDS011;13143;50.924;5.320;2022-12-17T17:07:59;142.38;;;53.75;;
25191;SDS011;13143;50.924;5.320;2022-12-17T17:10:25;138.10;;;52.63;;
25191;SDS011;13143;50.924;5.320;2022-12-17T17:12:52;135.70;;;53.13;;
25191;SDS011;13143;50.924;5.320;2022-12-17T17:15:18;129.77;;;50.78;;